createdAt,value
2022-12-11T00:00:26.581Z,46.30
2022-12-11T00:03:18.938Z,41.60
2022-12-11T00:05:51.014Z,46.10
2022-12-11T00:08:21.112Z,44.65
2022-12-11T00:10:51.892Z,47.00
2022-12-11T00:13:21.864Z,45.40
2022-12-11T00:15:52.234Z,46.85
2022-12-11T00:18:22.173Z,45.78
2022-12-11T00:20:54.201Z,48.28
2022-12-11T00:25:54.503Z,49.60
2022-12-11T00:28:24.881Z,49.60
2022-12-11T00:30:55.425Z,48.00
2022-12-11T00:33:25.342Z,45.40
2022-12-11T00:35:57.222Z,47.28
2022-12-11T00:38:27.363Z,41.42
2022-12-11T00:41:01.472Z,44.70
2022-12-11T00:43:31.393Z,42.65
2022-12-11T00:46:01.962Z,41.85
2022-12-11T00:48:32.108Z,40.67
2022-12-11T00:51:04.079Z,44.67
2022-12-11T00:53:34.171Z,42.63
2022-12-11T00:56:11.144Z,44.00
2022-12-11T00:58:41.123Z,39.95
2022-12-11T01:01:13.522Z,39.97
2022-12-11T01:03:43.468Z,40.08
2022-12-11T01:06:19.133Z,44.42
2022-12-11T01:09:09.763Z,42.30
2022-12-11T01:11:39.813Z,42.20
2022-12-11T01:14:10.530Z,42.00
2022-12-11T01:16:40.930Z,39.63
2022-12-11T01:19:10.962Z,42.55
2022-12-11T01:21:42.772Z,45.45
2022-12-11T01:24:12.783Z,48.47
2022-12-11T01:26:43.230Z,45.78
2022-12-11T01:29:13.083Z,47.83
2022-12-11T01:31:44.071Z,46.05
2022-12-11T01:34:14.015Z,49.20
2022-12-11T01:36:45.973Z,43.72
2022-12-11T01:39:15.923Z,42.58
2022-12-11T01:41:46.303Z,43.13
2022-12-11T01:44:54.802Z,42.40
2022-12-11T01:47:25.303Z,39.20
2022-12-11T01:49:55.273Z,40.25
2022-12-11T01:52:27.193Z,42.45
2022-12-11T01:54:57.181Z,42.67
2022-12-11T01:57:27.821Z,40.30
2022-12-11T01:59:58.783Z,40.92
2022-12-11T02:02:32.550Z,42.97
2022-12-11T02:05:04.943Z,41.10
2022-12-11T02:07:40.824Z,44.65
2022-12-11T02:10:13.613Z,46.67
2022-12-11T02:12:52.395Z,41.20
2022-12-11T02:15:32.896Z,43.75
2022-12-11T02:18:16.733Z,45.72
2022-12-11T02:20:54.852Z,44.28
2022-12-11T02:23:53.884Z,43.30
2022-12-11T02:26:56.895Z,44.67
2022-12-11T02:29:35.054Z,41.72
2022-12-11T02:32:12.117Z,45.97
2022-12-11T02:34:46.774Z,43.25
2022-12-11T02:37:21.927Z,44.03
2022-12-11T02:39:55.665Z,41.33
2022-12-11T02:42:30.123Z,42.53
2022-12-11T02:45:03.365Z,45.45
2022-12-11T02:47:35.267Z,43.78
2022-12-11T02:50:10.143Z,43.35
2022-12-11T02:52:41.653Z,45.58
2022-12-11T02:55:14.353Z,43.28
2022-12-11T02:57:49.515Z,44.92
2022-12-11T03:00:22.415Z,42.88
2022-12-11T03:02:52.483Z,47.15
2022-12-11T03:05:23.056Z,42.13
2022-12-11T03:07:53.233Z,44.58
2022-12-11T03:10:23.824Z,42.80
2022-12-11T03:12:57.244Z,44.58
2022-12-11T03:15:38.046Z,43.83
2022-12-11T03:18:15.777Z,41.45
2022-12-11T03:20:47.715Z,46.88
2022-12-11T03:23:25.115Z,49.33
2022-12-11T03:25:58.514Z,45.08
2022-12-11T03:28:35.135Z,41.88
2022-12-11T03:31:12.920Z,43.72
2022-12-11T03:33:47.013Z,41.33
2022-12-11T03:36:23.982Z,41.63
2022-12-11T03:38:56.023Z,45.78
2022-12-11T03:41:29.505Z,41.58
2022-12-11T03:44:00.625Z,42.15
2022-12-11T03:49:10.885Z,38.20
2022-12-11T03:51:42.683Z,38.17
2022-12-11T03:56:44.857Z,40.40
2022-12-11T03:59:15.416Z,41.05
2022-12-11T04:01:47.213Z,43.22
2022-12-11T04:06:47.864Z,40.97
2022-12-11T04:09:17.885Z,39.50
2022-12-11T04:11:48.283Z,41.20
2022-12-11T04:14:35.213Z,39.50
2022-12-11T04:17:07.312Z,38.92
2022-12-11T04:19:54.775Z,38.65
2022-12-11T04:22:44.773Z,39.45
2022-12-11T04:25:14.773Z,40.75
2022-12-11T04:27:51.662Z,40.08
2022-12-11T04:30:24.678Z,41.35
2022-12-11T04:32:59.144Z,37.30
2022-12-11T04:35:29.316Z,40.35
2022-12-11T04:38:00.083Z,37.20
2022-12-11T04:40:30.074Z,36.72
2022-12-11T04:43:00.605Z,35.70
2022-12-11T04:45:31.598Z,38.50
2022-12-11T04:48:03.503Z,39.67
2022-12-11T04:53:03.363Z,36.08
2022-12-11T04:55:33.472Z,37.05
2022-12-11T04:58:03.795Z,36.83
2022-12-11T05:00:33.673Z,37.78
2022-12-11T05:03:06.038Z,33.42
2022-12-11T05:05:36.165Z,39.25
2022-12-11T05:08:07.037Z,36.97
2022-12-11T05:10:37.063Z,36.87
2022-12-11T05:13:07.554Z,39.22
2022-12-11T05:15:39.951Z,36.70
2022-12-11T05:18:12.023Z,34.28
2022-12-11T05:20:41.903Z,34.50
2022-12-11T05:23:12.286Z,35.17
2022-12-11T05:25:42.372Z,35.38
2022-12-11T05:28:12.643Z,36.40
2022-12-11T05:30:42.813Z,36.35
2022-12-11T05:33:14.725Z,36.28
2022-12-11T05:38:18.998Z,38.70
2022-12-11T05:40:59.253Z,40.63
2022-12-11T05:43:31.236Z,43.00
2022-12-11T05:48:39.193Z,38.15
2022-12-11T05:51:10.390Z,40.10
2022-12-11T05:53:41.761Z,39.97
2022-12-11T05:56:14.074Z,36.30
2022-12-11T05:58:45.461Z,40.35
2022-12-11T06:01:18.383Z,38.03
2022-12-11T06:03:50.232Z,38.60
2022-12-11T06:06:20.411Z,38.35
2022-12-11T06:08:52.972Z,37.42
2022-12-11T06:11:24.571Z,35.38
2022-12-11T06:13:55.630Z,36.92
2022-12-11T06:16:26.156Z,39.60
2022-12-11T06:18:58.562Z,41.67
2022-12-11T06:21:30.285Z,39.28
2022-12-11T06:24:02.594Z,37.78
2022-12-11T06:26:33.531Z,38.55
2022-12-11T06:29:08.893Z,41.60
2022-12-11T06:31:41.033Z,40.17
2022-12-11T06:34:14.561Z,41.37
2022-12-11T06:36:44.682Z,46.22
2022-12-11T06:39:15.172Z,43.05
2022-12-11T06:41:45.420Z,40.72
2022-12-11T06:44:15.820Z,47.03
2022-12-11T06:46:45.958Z,44.33
2022-12-11T06:49:17.842Z,42.15
2022-12-11T06:54:17.881Z,40.38
2022-12-11T06:56:47.972Z,40.08
2022-12-11T06:59:19.244Z,40.85
2022-12-11T07:01:49.403Z,43.07
2022-12-11T07:04:24.941Z,41.17
2022-12-11T07:06:55.412Z,38.30
2022-12-11T07:09:26.612Z,40.42
2022-12-11T07:11:56.651Z,40.45
2022-12-11T07:14:27.163Z,41.92
2022-12-11T07:16:57.571Z,44.95
2022-12-11T07:19:29.971Z,40.63
2022-12-11T07:22:00.211Z,37.35
2022-12-11T07:24:31.782Z,38.40
2022-12-11T07:27:02.312Z,35.15
2022-12-11T07:29:32.683Z,36.25
2022-12-11T07:32:03.196Z,36.25
2022-12-11T07:34:35.408Z,33.90
2022-12-11T07:37:05.561Z,32.08
2022-12-11T07:39:36.234Z,35.30
2022-12-11T07:42:06.831Z,34.35
2022-12-11T07:44:37.443Z,35.65
2022-12-11T07:47:07.788Z,36.20
2022-12-11T07:49:42.627Z,34.55
2022-12-11T07:52:12.600Z,33.53
2022-12-11T07:54:43.814Z,32.75
2022-12-11T07:57:14.496Z,29.83
2022-12-11T07:59:45.060Z,31.05
2022-12-11T08:02:15.251Z,30.85
2022-12-11T08:04:50.340Z,31.37
2022-12-11T08:07:20.670Z,30.65
2022-12-11T08:09:51.363Z,33.53
2022-12-11T08:12:21.563Z,33.75
2022-12-11T08:14:53.571Z,32.53
2022-12-11T08:17:29.580Z,30.35
2022-12-11T08:20:03.562Z,30.50
2022-12-11T08:22:33.560Z,28.35
2022-12-11T08:25:04.143Z,25.98
2022-12-11T08:27:34.640Z,29.33
2022-12-11T08:30:06.279Z,28.60
2022-12-11T08:32:37.581Z,29.95
2022-12-11T08:35:11.537Z,29.48
2022-12-11T08:37:43.517Z,27.42
2022-12-11T08:40:18.171Z,23.88
2022-12-11T08:42:48.610Z,20.05
2022-12-11T08:45:21.520Z,21.58
2022-12-11T08:47:51.674Z,17.67
2022-12-11T08:50:28.878Z,16.80
2022-12-11T08:52:59.732Z,16.67
2022-12-11T08:55:32.578Z,17.58
2022-12-11T08:58:04.440Z,13.80
2022-12-11T09:00:37.960Z,13.07
2022-12-11T09:03:12.790Z,12.05
2022-12-11T09:05:45.897Z,12.00
2022-12-11T09:08:18.426Z,12.27
2022-12-11T09:10:49.081Z,12.18
2022-12-11T09:13:21.266Z,11.52
2022-12-11T09:15:54.215Z,13.68
2022-12-11T09:18:26.041Z,13.45
2022-12-11T09:21:06.332Z,12.77
2022-12-11T09:23:37.223Z,11.30
2022-12-11T09:26:08.899Z,14.00
2022-12-11T09:28:42.852Z,12.60
2022-12-11T09:31:19.404Z,13.75
2022-12-11T09:33:49.642Z,14.70
2022-12-11T09:36:21.760Z,12.75
2022-12-11T09:38:52.059Z,11.77
2022-12-11T09:41:48.060Z,15.80
2022-12-11T09:44:24.910Z,13.57
2022-12-11T09:46:55.583Z,14.07
2022-12-11T09:49:33.191Z,13.18
2022-12-11T09:52:16.033Z,11.82
2022-12-11T09:54:52.191Z,13.73
2022-12-11T09:57:44.941Z,13.82
2022-12-11T10:00:23.402Z,13.18
2022-12-11T10:03:28.512Z,14.25
2022-12-11T10:06:05.293Z,11.00
2022-12-11T10:08:46.602Z,13.45
2022-12-11T10:11:34.676Z,11.40
2022-12-11T10:14:15.593Z,10.75
2022-12-11T10:16:49.081Z,10.38
2022-12-11T10:19:22.282Z,10.68
2022-12-11T10:21:53.380Z,11.18
2022-12-11T10:27:22.726Z,11.35
2022-12-11T10:30:14.980Z,11.77
2022-12-11T10:32:55.611Z,11.48
2022-12-11T10:35:38.120Z,13.98
2022-12-11T10:38:22.534Z,15.15
2022-12-11T10:40:57.543Z,14.75
2022-12-11T10:43:39.673Z,15.55
2022-12-11T10:46:18.536Z,16.88
2022-12-11T10:48:50.928Z,14.23
2022-12-11T10:51:22.724Z,12.05
2022-12-11T10:53:54.371Z,10.98
2022-12-11T10:56:31.306Z,12.18
2022-12-11T10:59:03.306Z,14.18
2022-12-11T11:01:34.646Z,11.52
2022-12-11T11:04:08.182Z,10.50
2022-12-11T11:06:38.619Z,9.10
2022-12-11T11:09:30.113Z,18.42
2022-12-11T11:14:39.446Z,8.95
2022-12-11T11:17:17.655Z,8.63
2022-12-11T11:19:50.768Z,8.82
2022-12-11T11:22:22.144Z,6.63
2022-12-11T11:24:57.398Z,7.07
2022-12-11T11:27:36.215Z,15.85
2022-12-11T11:30:09.755Z,8.63
2022-12-11T11:32:42.746Z,8.48
2022-12-11T11:35:22.546Z,9.15
2022-12-11T11:38:04.006Z,7.47
2022-12-11T11:40:38.975Z,10.65
2022-12-11T11:43:18.861Z,7.97
2022-12-11T11:45:55.467Z,14.50
2022-12-11T11:48:37.577Z,9.65
2022-12-11T11:51:16.327Z,10.80
2022-12-11T11:53:51.487Z,10.77
2022-12-11T11:56:27.746Z,10.65
2022-12-11T11:59:12.845Z,7.47
2022-12-11T12:01:45.029Z,7.18
2022-12-11T12:04:16.306Z,7.55
2022-12-11T12:07:10.516Z,8.15
2022-12-11T12:09:52.396Z,7.60
2022-12-11T12:12:34.296Z,7.10
2022-12-11T12:15:18.696Z,8.07
2022-12-11T12:17:56.039Z,9.15
2022-12-11T12:20:45.009Z,7.40
2022-12-11T12:23:49.287Z,7.55
2022-12-11T12:26:28.599Z,7.90
2022-12-11T12:29:11.398Z,7.20
2022-12-11T12:31:57.679Z,9.48
2022-12-11T12:34:44.321Z,13.10
2022-12-11T12:37:24.835Z,9.60
2022-12-11T12:40:06.506Z,8.80
2022-12-11T12:42:47.287Z,5.15
2022-12-11T12:45:27.930Z,4.68
2022-12-11T12:48:00.306Z,5.13
2022-12-11T12:53:10.137Z,5.75
2022-12-11T12:58:28.427Z,6.15
2022-12-11T13:01:10.436Z,8.60
2022-12-11T13:03:56.767Z,5.82
2022-12-11T13:06:39.659Z,7.57
2022-12-11T13:09:18.545Z,6.85
2022-12-11T13:11:54.026Z,6.43
2022-12-11T13:14:32.699Z,5.32
2022-12-11T13:17:28.728Z,5.95
2022-12-11T13:20:19.687Z,4.68
2022-12-11T13:22:58.062Z,5.03
2022-12-11T13:25:35.192Z,4.57
2022-12-11T13:28:09.866Z,6.00
2022-12-11T13:30:40.777Z,7.80
2022-12-11T13:33:19.637Z,6.43
2022-12-11T13:36:09.908Z,5.55
2022-12-11T13:38:51.148Z,5.30
2022-12-11T13:41:22.626Z,4.35
2022-12-11T13:43:54.108Z,4.82
2022-12-11T13:46:29.945Z,5.28
2022-12-11T13:49:03.227Z,4.10
2022-12-11T13:51:38.438Z,3.90
2022-12-11T13:54:17.763Z,4.13
2022-12-11T13:57:05.869Z,4.85
2022-12-11T13:59:38.748Z,4.82
2022-12-11T14:02:20.080Z,5.43
2022-12-11T14:04:53.446Z,5.38
2022-12-11T14:07:30.404Z,4.72
2022-12-11T14:10:08.350Z,5.10
2022-12-11T14:12:40.187Z,4.63
2022-12-11T14:17:51.503Z,5.65
2022-12-11T14:20:24.815Z,5.32
2022-12-11T14:23:07.936Z,4.25
2022-12-11T14:25:38.315Z,5.28
2022-12-11T14:28:18.445Z,5.40
2022-12-11T14:30:51.643Z,4.45
2022-12-11T14:33:27.594Z,8.50
2022-12-11T14:35:59.603Z,5.45
2022-12-11T14:38:36.856Z,9.80
2022-12-11T14:41:14.262Z,9.07
2022-12-11T14:43:49.795Z,6.50
2022-12-11T14:46:24.228Z,5.00
2022-12-11T14:49:06.644Z,5.82
2022-12-11T14:51:43.524Z,5.75
2022-12-11T14:54:25.981Z,6.03
2022-12-11T14:56:57.332Z,5.88
2022-12-11T14:59:32.253Z,6.47
2022-12-11T15:02:05.827Z,7.22
2022-12-11T15:04:36.774Z,5.72
2022-12-11T15:07:21.473Z,5.35
2022-12-11T15:09:58.850Z,6.05
2022-12-11T15:12:32.774Z,5.82
2022-12-11T15:15:18.824Z,7.30
2022-12-11T15:17:53.380Z,6.47
2022-12-11T15:20:28.097Z,7.72
2022-12-11T15:23:01.035Z,5.15
2022-12-11T15:25:33.380Z,5.70
2022-12-11T15:28:04.317Z,5.30
2022-12-11T15:30:39.366Z,5.50
2022-12-11T15:33:23.359Z,8.70
2022-12-11T15:36:01.794Z,8.02
2022-12-11T15:38:35.532Z,8.38
2022-12-11T15:41:15.342Z,6.03
2022-12-11T15:43:58.077Z,6.55
2022-12-11T15:46:39.432Z,5.15
2022-12-11T15:49:14.319Z,7.53
2022-12-11T15:51:49.223Z,7.15
2022-12-11T15:54:19.746Z,6.32
2022-12-11T15:56:53.949Z,3.75
2022-12-11T15:59:24.828Z,6.70
2022-12-11T16:01:55.311Z,5.75
2022-12-11T16:04:25.469Z,5.65
2022-12-11T16:07:00.504Z,6.63
2022-12-11T16:09:31.478Z,5.97
2022-12-11T16:12:04.525Z,6.85
2022-12-11T16:14:38.675Z,5.68
2022-12-11T16:17:10.731Z,5.40
2022-12-11T16:19:42.015Z,5.80
2022-12-11T16:24:44.706Z,7.43
2022-12-11T16:27:22.958Z,5.20
2022-12-11T16:29:54.777Z,5.50
2022-12-11T16:32:27.865Z,5.13
2022-12-11T16:35:01.616Z,5.60
2022-12-11T16:37:33.714Z,5.55
2022-12-11T16:40:06.835Z,5.40
2022-12-11T16:42:41.515Z,5.90
2022-12-11T16:45:23.218Z,8.55
2022-12-11T16:47:56.695Z,12.73
2022-12-11T16:50:27.296Z,9.80
2022-12-11T16:52:58.646Z,12.48
2022-12-11T16:55:29.275Z,12.88
2022-12-11T16:58:01.994Z,17.63
2022-12-11T17:00:36.024Z,10.02
2022-12-11T17:03:06.721Z,10.32
2022-12-11T17:05:37.032Z,7.50
2022-12-11T17:08:08.215Z,5.38
2022-12-11T17:10:41.967Z,5.78
2022-12-11T17:13:14.173Z,5.75
2022-12-11T17:15:44.942Z,4.60
2022-12-11T17:18:15.956Z,4.68
2022-12-11T17:20:47.134Z,5.47
2022-12-11T17:23:18.015Z,5.55
2022-12-11T17:25:48.292Z,3.97
2022-12-11T17:28:20.244Z,7.22
2022-12-11T17:33:21.117Z,9.23
2022-12-11T17:35:51.884Z,7.32
2022-12-11T17:38:22.434Z,7.78
2022-12-11T17:40:52.728Z,5.25
2022-12-11T17:43:24.836Z,6.60
2022-12-11T17:48:26.365Z,5.95
2022-12-11T17:50:56.965Z,4.90
2022-12-11T17:53:29.719Z,5.07
2022-12-11T17:56:03.913Z,4.47
2022-12-11T17:58:36.991Z,3.67
2022-12-11T18:01:11.882Z,4.78
2022-12-11T18:03:49.897Z,5.07
2022-12-11T18:06:20.205Z,4.82
2022-12-11T18:08:50.512Z,4.85
2022-12-11T18:11:23.234Z,4.03
2022-12-11T18:14:01.347Z,4.40
2022-12-11T18:16:33.846Z,4.50
2022-12-11T18:19:10.640Z,4.55
2022-12-11T18:21:46.927Z,4.60
2022-12-11T18:24:19.562Z,5.00
2022-12-11T18:26:51.980Z,4.82
2022-12-11T18:29:26.996Z,6.82
2022-12-11T18:31:59.390Z,6.07
2022-12-11T18:34:32.519Z,5.70
2022-12-11T18:37:03.465Z,5.32
2022-12-11T18:39:35.973Z,4.22
2022-12-11T18:42:31.879Z,4.28
2022-12-11T18:44:59.193Z,5.07
2022-12-11T18:47:31.923Z,5.20
2022-12-11T18:50:08.218Z,5.45
2022-12-11T18:52:43.033Z,5.93
2022-12-11T18:55:15.457Z,13.18
2022-12-11T18:57:46.812Z,11.63
2022-12-11T19:00:20.966Z,12.82
2022-12-11T19:02:53.635Z,7.90
2022-12-11T19:05:24.195Z,6.88
2022-12-11T19:07:54.260Z,6.55
2022-12-11T19:10:24.704Z,15.52
2022-12-11T19:12:54.824Z,4.95
2022-12-11T19:15:27.865Z,5.50
2022-12-11T19:17:57.934Z,4.55
2022-12-11T19:23:18.848Z,4.60
2022-12-11T19:25:50.891Z,4.20
2022-12-11T19:30:54.080Z,3.80
2022-12-11T19:36:03.814Z,3.95
2022-12-11T19:38:34.001Z,3.80
2022-12-11T19:41:08.635Z,6.28
2022-12-11T19:43:39.094Z,5.38
2022-12-11T19:46:12.218Z,4.50
2022-12-11T19:48:42.628Z,6.22
2022-12-11T19:51:15.435Z,5.13
2022-12-11T19:53:46.183Z,3.45
2022-12-11T19:56:17.577Z,2.80
2022-12-11T19:58:48.194Z,3.22
2022-12-11T20:01:28.812Z,4.35
2022-12-11T20:04:01.746Z,4.28
2022-12-11T20:06:34.384Z,2.78
2022-12-11T20:09:05.632Z,2.95
2022-12-11T20:14:08.713Z,2.95
2022-12-11T20:17:09.937Z,3.90
2022-12-11T20:19:32.070Z,5.78
2022-12-11T20:24:33.025Z,4.45
2022-12-11T20:27:03.762Z,4.28
2022-12-11T20:29:34.325Z,3.05
2022-12-11T20:32:06.530Z,2.63
2022-12-11T20:34:36.565Z,3.33
2022-12-11T20:37:08.095Z,3.38
2022-12-11T20:39:39.055Z,3.35
2022-12-11T20:42:11.707Z,3.47
2022-12-11T20:44:47.357Z,3.92
2022-12-11T20:47:22.096Z,4.20
2022-12-11T20:49:53.018Z,4.10
2022-12-11T20:52:23.924Z,3.67
2022-12-11T20:54:53.973Z,3.95
2022-12-11T20:57:24.474Z,4.20
2022-12-11T20:59:54.873Z,3.60
2022-12-11T21:02:26.965Z,4.47
2022-12-11T21:04:57.253Z,3.13
2022-12-11T21:07:28.667Z,4.45
2022-12-11T21:09:58.903Z,3.40
2022-12-11T21:12:31.700Z,3.55
2022-12-11T21:15:02.764Z,3.25
2022-12-11T21:17:36.313Z,3.30
2022-12-11T21:20:08.754Z,3.30
2022-12-11T21:22:39.253Z,4.70
2022-12-11T21:25:10.307Z,3.08
2022-12-11T21:27:41.396Z,4.20
2022-12-11T21:30:12.375Z,3.20
2022-12-11T21:32:47.933Z,3.72
2022-12-11T21:35:18.103Z,4.38
2022-12-11T21:37:49.092Z,3.53
2022-12-11T21:40:20.106Z,4.15
2022-12-11T21:42:52.059Z,4.15
2022-12-11T21:46:00.483Z,4.00
2022-12-11T21:48:18.545Z,4.60
2022-12-11T21:50:51.453Z,3.58
2022-12-11T21:53:22.205Z,3.47
2022-12-11T21:55:52.278Z,3.95
2022-12-11T21:58:22.763Z,3.60
2022-12-11T22:00:52.931Z,3.55
2022-12-11T22:03:24.974Z,2.47
2022-12-11T22:05:54.893Z,3.47
2022-12-11T22:08:25.756Z,3.17
2022-12-11T22:10:56.965Z,2.73
2022-12-11T22:13:27.574Z,2.88
2022-12-11T22:15:57.914Z,3.50
2022-12-11T22:18:30.262Z,3.77
2022-12-11T22:21:01.225Z,3.42
2022-12-11T22:23:31.733Z,3.25
2022-12-11T22:26:02.095Z,3.47
2022-12-11T22:28:32.954Z,3.63
2022-12-11T22:31:37.104Z,2.90
2022-12-11T22:34:09.113Z,3.17
2022-12-11T22:36:40.244Z,3.20
2022-12-11T22:39:10.752Z,2.88
2022-12-11T22:41:42.585Z,2.78
2022-12-11T22:44:16.943Z,2.72
2022-12-11T22:46:57.834Z,2.60
2022-12-11T22:49:29.823Z,2.95
2022-12-11T22:51:59.922Z,3.42
2022-12-11T22:54:30.374Z,3.10
2022-12-11T22:57:01.875Z,2.63
2022-12-11T22:59:32.393Z,2.17
2022-12-11T23:02:02.440Z,2.78
2022-12-11T23:04:36.314Z,2.43
2022-12-11T23:07:06.745Z,2.30
2022-12-11T23:09:37.384Z,2.90
2022-12-11T23:12:12.041Z,2.88
2022-12-11T23:14:42.698Z,3.88
2022-12-11T23:17:12.825Z,3.83
2022-12-11T23:19:46.710Z,6.30
2022-12-11T23:22:16.910Z,4.88
2022-12-11T23:24:47.478Z,2.58
2022-12-11T23:27:17.488Z,3.33
2022-12-11T23:29:47.959Z,2.50
2022-12-11T23:32:18.112Z,3.75
2022-12-11T23:34:50.150Z,2.35
2022-12-11T23:39:50.696Z,3.00
2022-12-11T23:42:20.961Z,2.70
2022-12-11T23:44:51.694Z,3.20
2022-12-11T23:47:22.279Z,2.60
2022-12-11T23:49:56.050Z,2.47
2022-12-11T23:52:26.930Z,1.95
2022-12-11T23:57:27.389Z,2.30
2022-12-11T23:59:58.262Z,2.00
